Tomiei Maru — JD3429 — position and weather

sailwx.info

Track history (hours):
 
Tides and Currents Weather Stations Pressure Air Temp Water Temp Dewpoint Dewpoint Depression Visibility Wind Speed Wind Dir Waves Ship Positions

Tomiei Maru

Last reported at 2018-Jan-19 00:34 UTC. Time now 2018-Jan-19 07:20 UTC.
Position N 34°35' E 138°49'.

Length 75 m; draft 4.3 m.

Type: Cargo ship. MMSI: 431004012.

Date/timePositionNaut miles runAvg speedWind from/ knotsBaromVisibWave heightAir tempDewpointWater temp
2018-Jan-19 00:34N 34°35' E 138°49'111.9
2018-Jan-19 00:30N 34°35' E 138°50'1211.6
2018-Jan-18 23:28N 34°41' E 139°03'611.7
2018-Jan-18 22:55N 34°45' E 139°08'1511.6
2018-Jan-18 21:40N 34°56' E 139°21'311.8
2018-Jan-18 21:22N 34°57' E 139°24'511.9
2018-Jan-18 20:57N 35°00' E 139°29'511.9
2018-Jan-18 20:30N 35°03' E 139°34'612.5
2018-Jan-18 20:00N 35°07' E 139°41'612.2
2018-Jan-18 19:30N 35°12' E 139°45'510.5
2018-Jan-18 19:00N 35°17' E 139°45'611.3
2018-Jan-18 18:30N 35°22' E 139°42'5 9.9
2018-Jan-18 18:00N 35°25' E 139°47'611.4
2018-Jan-18 17:30N 35°22' E 139°53'1 1.8
2018-Jan-18 17:00N 35°22' E 139°54'0 0.0
2018-Jan-18 16:30N 35°22' E 139°54'0 0.0
2018-Jan-18 16:00N 35°22' E 139°54'0 0.0
2018-Jan-18 15:30N 35°22' E 139°54'  
2018-Jan-12 04:08N 34°32' E 135°22'0 0.1
2018-Jan-12 04:00N 34°32' E 135°22'0 0.0
2018-Jan-12 03:30N 34°32' E 135°22'0 0.0
2018-Jan-12 03:01N 34°32' E 135°22'3 6.9
2018-Jan-12 02:30N 34°31' E 135°18'612.8
2018-Jan-12 02:00N 34°27' E 135°12'612.6
2018-Jan-12 01:31N 34°23' E 135°07'611.7
2018-Jan-12 01:00N 34°17' E 135°03'611.7
2018-Jan-12 00:30N 34°11' E 135°03'612.2
2018-Jan-11 23:59N 34°05' E 135°03'612.4
2018-Jan-11 23:30N 33°59' E 135°03'100 7.9
2018-Jan-11 10:55N 34°38' E 136°54'612.9
2018-Jan-11 10:29N 34°42' E 136°49'613.6
2018-Jan-11 10:00N 34°48' E 136°46'713.4
2018-Jan-11 09:30N 34°54' E 136°46'612.7
2018-Jan-11 09:00N 34°60' E 136°49'4 8.6
2018-Jan-11 08:29N 35°04' E 136°52'0 0.0
2018-Jan-11 08:00N 35°04' E 136°52'0 0.0
2018-Jan-11 07:30N 35°04' E 136°52'0 0.0
2018-Jan-11 07:00N 35°04' E 136°52'0 0.0
2018-Jan-11 06:30N 35°04' E 136°52'0 0.0
2018-Jan-11 06:00N 35°04' E 136°52'0 0.0
2018-Jan-11 05:30N 35°04' E 136°52'0 0.0
2018-Jan-11 05:00N 35°04' E 136°52'0 0.0
2018-Jan-11 04:30N 35°04' E 136°52'0 0.0
2018-Jan-11 03:57N 35°04' E 136°52'0 0.0
2018-Jan-11 03:30N 35°04' E 136°52'0 0.0
2018-Jan-11 03:00N 35°04' E 136°52'0 0.0
2018-Jan-11 02:30N 35°04' E 136°52'0 0.0
2018-Jan-11 02:00N 35°04' E 136°52'0 0.0
2018-Jan-11 01:30N 35°04' E 136°52'0 0.0
2018-Jan-11 01:00N 35°04' E 136°52'0 0.0
2018-Jan-11 00:30N 35°04' E 136°52'0 0.0
2018-Jan-11 00:00N 35°04' E 136°52'0 0.0
2018-Jan-10 23:27N 35°04' E 136°52'0 0.0
2018-Jan-10 23:00N 35°04' E 136°52'1 3.0
2018-Jan-10 22:31N 35°05' E 136°52'0 0.0
2018-Jan-10 22:01N 35°05' E 136°52'  
Track history (hours):
 
Tides and Currents Weather Stations Pressure Air Temp Water Temp Dewpoint Dewpoint Depression Visibility Wind Speed Wind Dir Waves Ship Positions

Tomiei Maru

Last reported at 2018-Jan-19 00:34 UTC. Time now 2018-Jan-19 07:20 UTC.
Position N 34°35' E 138°49'.

Length 75 m; draft 4.3 m.

Type: Cargo ship. MMSI: 431004012.

Date/timePositionNaut miles runAvg speedWind from/ knotsBaromVisibWave heightAir tempDewpointWater temp
2018-Jan-19 00:34N 34°35' E 138°49'111.9
2018-Jan-19 00:30N 34°35' E 138°50'1211.6
2018-Jan-18 23:28N 34°41' E 139°03'611.7
2018-Jan-18 22:55N 34°45' E 139°08'1511.6
2018-Jan-18 21:40N 34°56' E 139°21'311.8
2018-Jan-18 21:22N 34°57' E 139°24'511.9
2018-Jan-18 20:57N 35°00' E 139°29'511.9
2018-Jan-18 20:30N 35°03' E 139°34'612.5
2018-Jan-18 20:00N 35°07' E 139°41'612.2
2018-Jan-18 19:30N 35°12' E 139°45'510.5
2018-Jan-18 19:00N 35°17' E 139°45'611.3
2018-Jan-18 18:30N 35°22' E 139°42'5 9.9
2018-Jan-18 18:00N 35°25' E 139°47'611.4
2018-Jan-18 17:30N 35°22' E 139°53'1 1.8
2018-Jan-18 17:00N 35°22' E 139°54'0 0.0
2018-Jan-18 16:30N 35°22' E 139°54'0 0.0
2018-Jan-18 16:00N 35°22' E 139°54'0 0.0
2018-Jan-18 15:30N 35°22' E 139°54'  
2018-Jan-12 04:08N 34°32' E 135°22'0 0.1
2018-Jan-12 04:00N 34°32' E 135°22'0 0.0
2018-Jan-12 03:30N 34°32' E 135°22'0 0.0
2018-Jan-12 03:01N 34°32' E 135°22'3 6.9
2018-Jan-12 02:30N 34°31' E 135°18'612.8
2018-Jan-12 02:00N 34°27' E 135°12'612.6
2018-Jan-12 01:31N 34°23' E 135°07'611.7
2018-Jan-12 01:00N 34°17' E 135°03'611.7
2018-Jan-12 00:30N 34°11' E 135°03'612.2
2018-Jan-11 23:59N 34°05' E 135°03'612.4
2018-Jan-11 23:30N 33°59' E 135°03'100 7.9
2018-Jan-11 10:55N 34°38' E 136°54'612.9
2018-Jan-11 10:29N 34°42' E 136°49'613.6
2018-Jan-11 10:00N 34°48' E 136°46'713.4
2018-Jan-11 09:30N 34°54' E 136°46'612.7
2018-Jan-11 09:00N 34°60' E 136°49'4 8.6
2018-Jan-11 08:29N 35°04' E 136°52'0 0.0
2018-Jan-11 08:00N 35°04' E 136°52'0 0.0
2018-Jan-11 07:30N 35°04' E 136°52'0 0.0
2018-Jan-11 07:00N 35°04' E 136°52'0 0.0
2018-Jan-11 06:30N 35°04' E 136°52'0 0.0
2018-Jan-11 06:00N 35°04' E 136°52'0 0.0
2018-Jan-11 05:30N 35°04' E 136°52'0 0.0
2018-Jan-11 05:00N 35°04' E 136°52'0 0.0
2018-Jan-11 04:30N 35°04' E 136°52'0 0.0
2018-Jan-11 03:57N 35°04' E 136°52'0 0.0
2018-Jan-11 03:30N 35°04' E 136°52'0 0.0
2018-Jan-11 03:00N 35°04' E 136°52'0 0.0
2018-Jan-11 02:30N 35°04' E 136°52'0 0.0
2018-Jan-11 02:00N 35°04' E 136°52'0 0.0
2018-Jan-11 01:30N 35°04' E 136°52'0 0.0
2018-Jan-11 01:00N 35°04' E 136°52'0 0.0
2018-Jan-11 00:30N 35°04' E 136°52'0 0.0
2018-Jan-11 00:00N 35°04' E 136°52'0 0.0
2018-Jan-10 23:27N 35°04' E 136°52'0 0.0
2018-Jan-10 23:00N 35°04' E 136°52'1 3.0
2018-Jan-10 22:31N 35°05' E 136°52'0 0.0
2018-Jan-10 22:01N 35°05' E 136°52'  

Dump ship's entire track history